createdAt,value
2022-09-22T00:01:13.884Z,101661.66
2022-09-22T00:03:46.391Z,101665.22
2022-09-22T00:06:21.452Z,101666.88
2022-09-22T00:08:53.436Z,101658.97
2022-09-22T00:11:51.080Z,101668.03
2022-09-22T00:14:26.124Z,101668.47
2022-09-22T00:16:55.601Z,101664.41
2022-09-22T00:19:31.238Z,101663.66
2022-09-22T00:21:57.972Z,101663.44
2022-09-22T00:24:26.084Z,101663.09
2022-09-22T00:26:57.776Z,101661.56
2022-09-22T00:29:26.544Z,101664.50
2022-09-22T00:31:54.116Z,101657.72
2022-09-22T00:34:24.078Z,101659.47
2022-09-22T00:36:51.005Z,101657.81
2022-09-22T00:39:18.853Z,101664.03
2022-09-22T00:41:49.172Z,101654.72
2022-09-22T00:44:28.091Z,101657.78
2022-09-22T00:47:35.367Z,101650.38
2022-09-22T00:50:18.379Z,101654.34
2022-09-22T00:52:51.369Z,101651.09
2022-09-22T00:55:26.293Z,101655.19
2022-09-22T00:57:54.049Z,101654.69
2022-09-22T01:00:20.898Z,101652.59
2022-09-22T01:02:53.170Z,101659.81
2022-09-22T01:05:21.658Z,101652.16
2022-09-22T01:07:48.996Z,101660.34
2022-09-22T01:10:15.797Z,101658.38
2022-09-22T01:12:52.083Z,101656.47
2022-09-22T01:15:31.066Z,101653.69
2022-09-22T01:18:25.680Z,101658.69
2022-09-22T01:21:11.611Z,101659.25
2022-09-22T01:23:50.511Z,101653.75
2022-09-22T01:26:29.489Z,101662.53
2022-09-22T01:29:26.992Z,101655.94
2022-09-22T01:32:02.946Z,101652.09
2022-09-22T01:34:36.517Z,101656.38
2022-09-22T01:37:10.288Z,101651.31
2022-09-22T01:39:42.074Z,101652.28
2022-09-22T01:42:43.206Z,101659.09
2022-09-22T01:45:15.319Z,101654.28
2022-09-22T01:47:45.076Z,101650.38
2022-09-22T01:50:28.173Z,101651.91
2022-09-22T01:52:56.419Z,101650.97
2022-09-22T01:55:30.369Z,101644.03
2022-09-22T01:58:01.970Z,101651.13
2022-09-22T02:00:29.187Z,101646.72
2022-09-22T02:03:12.087Z,101650.50
2022-09-22T02:05:44.134Z,101641.78
2022-09-22T02:08:17.139Z,101651.28
2022-09-22T02:10:46.290Z,101640.56
2022-09-22T02:13:13.003Z,101636.25
2022-09-22T02:15:58.684Z,101638.91
2022-09-22T02:18:29.519Z,101640.75
2022-09-22T02:20:56.304Z,101641.31
2022-09-22T02:23:23.049Z,101647.16
2022-09-22T02:25:49.829Z,101653.88
2022-09-22T02:28:18.961Z,101651.56
2022-09-22T02:30:59.099Z,101649.59
2022-09-22T02:33:38.293Z,101654.75
2022-09-22T02:36:37.411Z,101650.72
2022-09-22T02:39:13.833Z,101653.22
2022-09-22T02:41:52.628Z,101649.00
2022-09-22T02:44:22.396Z,101643.28
2022-09-22T02:46:57.233Z,101642.31
2022-09-22T02:49:25.169Z,101645.56
2022-09-22T02:51:52.958Z,101650.72
2022-09-22T02:54:19.635Z,101647.56
2022-09-22T02:56:46.369Z,101642.16
2022-09-22T02:59:13.177Z,101636.72
2022-09-22T03:01:40.140Z,101636.97
2022-09-22T03:04:06.953Z,101640.94
2022-09-22T03:06:33.857Z,101642.66
2022-09-22T03:09:00.806Z,101638.41
2022-09-22T03:11:27.662Z,101631.84
2022-09-22T03:13:54.819Z,101633.53
2022-09-22T03:16:21.682Z,101632.41
2022-09-22T03:18:48.482Z,101635.13
2022-09-22T03:21:15.296Z,101630.94
2022-09-22T03:23:41.969Z,101636.78
2022-09-22T03:26:11.318Z,101630.41
2022-09-22T03:28:38.060Z,101633.50
2022-09-22T03:31:04.871Z,101627.09
2022-09-22T03:33:31.599Z,101630.22
2022-09-22T03:35:58.389Z,101629.91
2022-09-22T03:38:25.110Z,101635.09
2022-09-22T03:40:52.843Z,101627.66
2022-09-22T03:43:20.183Z,101619.97
2022-09-22T03:45:47.871Z,101626.19
2022-09-22T03:48:54.511Z,101623.84
2022-09-22T03:51:24.274Z,101612.13
2022-09-22T03:53:56.725Z,101622.50
2022-09-22T03:56:44.011Z,101618.88
2022-09-22T03:59:11.656Z,101624.38
2022-09-22T04:01:38.398Z,101623.78
2022-09-22T04:04:05.234Z,101614.00
2022-09-22T04:06:32.297Z,101620.75
2022-09-22T04:08:59.069Z,101616.38
2022-09-22T04:11:25.839Z,101622.22
2022-09-22T04:13:52.596Z,101617.09
2022-09-22T04:16:19.282Z,101622.53
2022-09-22T04:18:46.213Z,101619.75
2022-09-22T04:21:13.123Z,101622.28
2022-09-22T04:23:39.892Z,101621.50
2022-09-22T04:26:06.614Z,101626.53
2022-09-22T04:28:33.429Z,101614.88
2022-09-22T04:31:00.480Z,101620.66
2022-09-22T04:37:57.696Z,101618.47
2022-09-22T04:40:52.696Z,101619.50
2022-09-22T04:43:19.440Z,101624.59
2022-09-22T04:45:47.335Z,101620.22
2022-09-22T04:48:17.615Z,101625.00
2022-09-22T04:50:47.948Z,101623.22
2022-09-22T04:53:15.273Z,101628.38
2022-09-22T04:55:42.069Z,101632.09
2022-09-22T04:58:09.699Z,101628.53
2022-09-22T05:00:36.810Z,101631.25
2022-09-22T05:03:08.718Z,101619.97
2022-09-22T05:05:35.896Z,101626.50
2022-09-22T05:08:05.951Z,101621.38
2022-09-22T05:10:34.508Z,101619.84
2022-09-22T05:13:02.793Z,101628.69
2022-09-22T05:15:34.710Z,101622.69
2022-09-22T05:18:01.681Z,101624.44
2022-09-22T05:20:28.520Z,101631.50
2022-09-22T05:22:55.700Z,101627.63
2022-09-22T05:25:22.893Z,101628.06
2022-09-22T05:27:53.984Z,101627.84
2022-09-22T05:30:23.989Z,101632.44
2022-09-22T05:32:51.442Z,101628.97
2022-09-22T05:35:20.419Z,101631.44
2022-09-22T05:37:48.967Z,101631.41
2022-09-22T05:40:16.496Z,101632.66
2022-09-22T05:42:45.597Z,101641.53
2022-09-22T05:45:12.518Z,101646.56
2022-09-22T05:47:39.835Z,101644.16
2022-09-22T05:50:07.818Z,101642.16
2022-09-22T05:52:34.692Z,101650.59
2022-09-22T05:55:01.820Z,101636.78
2022-09-22T05:57:28.721Z,101646.47
2022-09-22T05:59:55.660Z,101643.34
2022-09-22T06:02:26.445Z,101654.47
2022-09-22T06:04:53.822Z,101651.72
2022-09-22T06:07:20.866Z,101651.53
2022-09-22T06:09:48.670Z,101648.72
2022-09-22T06:12:16.104Z,101638.72
2022-09-22T06:14:43.088Z,101645.19
2022-09-22T06:17:10.653Z,101645.25
2022-09-22T06:19:38.297Z,101644.88
2022-09-22T06:22:05.657Z,101643.84
2022-09-22T06:24:32.516Z,101650.56
2022-09-22T06:26:59.286Z,101643.28
2022-09-22T06:29:26.648Z,101648.19
2022-09-22T06:31:53.543Z,101651.28
2022-09-22T06:34:20.291Z,101646.88
2022-09-22T06:36:47.063Z,101644.50
2022-09-22T06:39:14.421Z,101650.88
2022-09-22T06:41:41.206Z,101647.94
2022-09-22T06:44:12.779Z,101646.88
2022-09-22T06:46:39.487Z,101641.81
2022-09-22T06:49:06.231Z,101639.66
2022-09-22T06:51:34.575Z,101640.88
2022-09-22T06:54:06.413Z,101637.97
2022-09-22T06:56:39.965Z,101634.31
2022-09-22T06:59:11.102Z,101639.03
2022-09-22T07:01:39.135Z,101639.53
2022-09-22T07:04:06.177Z,101643.41
2022-09-22T07:06:32.943Z,101636.50
2022-09-22T07:08:59.911Z,101646.69
2022-09-22T07:11:26.734Z,101639.56
2022-09-22T07:13:54.414Z,101648.53
2022-09-22T07:16:23.597Z,101646.34
2022-09-22T07:18:55.155Z,101639.13
2022-09-22T07:21:27.709Z,101654.56
2022-09-22T07:23:55.658Z,101644.34
2022-09-22T07:26:30.901Z,101635.72
2022-09-22T07:28:59.718Z,101637.91
2022-09-22T07:31:29.034Z,101639.25
2022-09-22T07:33:56.777Z,101642.84
2022-09-22T07:36:26.261Z,101643.94
2022-09-22T07:38:54.865Z,101638.44
2022-09-22T07:41:22.885Z,101638.31
2022-09-22T07:43:51.577Z,101642.50
2022-09-22T07:46:19.031Z,101647.09
2022-09-22T07:48:48.037Z,101645.03
2022-09-22T07:51:18.393Z,101648.91
2022-09-22T07:53:47.184Z,101646.25
2022-09-22T07:56:16.425Z,101642.25
2022-09-22T07:58:50.113Z,101649.22
2022-09-22T08:01:18.030Z,101643.19
2022-09-22T08:03:47.406Z,101644.13
2022-09-22T08:06:16.243Z,101659.81
2022-09-22T08:08:46.262Z,101655.69
2022-09-22T08:11:15.182Z,101661.47
2022-09-22T08:13:44.233Z,101659.31
2022-09-22T08:16:11.684Z,101661.47
2022-09-22T08:18:39.934Z,101664.38
2022-09-22T08:21:08.023Z,101662.06
2022-09-22T08:23:35.199Z,101663.78
2022-09-22T08:26:07.432Z,101662.59
2022-09-22T08:28:34.710Z,101670.06
2022-09-22T08:31:02.598Z,101662.38
2022-09-22T08:33:32.296Z,101665.22
2022-09-22T08:36:03.827Z,101668.41
2022-09-22T08:38:31.603Z,101665.03
2022-09-22T08:41:19.800Z,101669.44
2022-09-22T08:43:55.392Z,101664.44
2022-09-22T08:46:25.548Z,101667.53
2022-09-22T08:49:15.063Z,101674.22
2022-09-22T08:51:53.805Z,101666.22
2022-09-22T08:54:24.897Z,101663.66
2022-09-22T08:57:29.596Z,101658.31
2022-09-22T09:00:05.787Z,101660.97
2022-09-22T09:02:43.498Z,101664.22
2022-09-22T09:05:32.719Z,101658.13
2022-09-22T09:08:11.311Z,101664.81
2022-09-22T09:10:53.756Z,101661.38
2022-09-22T09:13:45.487Z,101659.47
2022-09-22T09:16:32.982Z,101662.72
2022-09-22T09:19:16.564Z,101662.34
2022-09-22T09:21:51.013Z,101661.56
2022-09-22T09:27:30.685Z,101657.22
2022-09-22T09:30:18.085Z,101650.53
2022-09-22T09:33:00.770Z,101652.16
2022-09-22T09:35:39.621Z,101653.56
2022-09-22T09:38:11.527Z,101649.44
2022-09-22T09:40:38.417Z,101656.13
2022-09-22T09:43:05.737Z,101654.53
2022-09-22T09:46:11.818Z,101648.66
2022-09-22T09:49:05.775Z,101649.72
2022-09-22T09:51:40.957Z,101643.03
2022-09-22T09:54:14.465Z,101648.47
2022-09-22T09:57:02.858Z,101640.63
2022-09-22T09:59:48.310Z,101645.88
2022-09-22T10:02:19.843Z,101647.22
2022-09-22T10:05:07.811Z,101641.78
2022-09-22T10:07:43.914Z,101645.56
2022-09-22T10:10:33.785Z,101637.28
2022-09-22T10:13:00.459Z,101639.22
2022-09-22T10:15:27.406Z,101642.53
2022-09-22T10:17:54.251Z,101629.31
2022-09-22T10:20:32.023Z,101633.97
2022-09-22T10:23:20.863Z,101631.34
2022-09-22T10:25:49.407Z,101628.16
2022-09-22T10:28:18.355Z,101631.78
2022-09-22T10:30:57.866Z,101637.13
2022-09-22T10:33:24.684Z,101633.69
2022-09-22T10:36:09.446Z,101635.00
2022-09-22T10:38:40.919Z,101632.66
2022-09-22T10:41:18.098Z,101629.25
2022-09-22T10:47:15.266Z,101631.13
2022-09-22T10:49:50.789Z,101632.44
2022-09-22T10:52:23.407Z,101629.22
2022-09-22T10:55:03.453Z,101630.94
2022-09-22T10:58:01.292Z,101630.75
2022-09-22T11:00:28.477Z,101621.72
2022-09-22T11:03:23.245Z,101625.72
2022-09-22T11:06:33.689Z,101623.53
2022-09-22T11:09:26.974Z,101621.25
2022-09-22T11:12:17.763Z,101628.63
2022-09-22T11:14:50.670Z,101629.31
2022-09-22T11:17:45.394Z,101615.75
2022-09-22T11:20:18.424Z,101617.03
2022-09-22T11:23:12.769Z,101622.94
2022-09-22T11:26:02.032Z,101617.38
2022-09-22T11:28:56.302Z,101605.44
2022-09-22T11:31:46.911Z,101604.88
2022-09-22T11:34:30.457Z,101607.94
2022-09-22T11:37:25.906Z,101602.84
2022-09-22T11:40:18.387Z,101605.53
2022-09-22T11:43:20.728Z,101598.59
2022-09-22T11:46:03.118Z,101602.06
2022-09-22T11:48:35.938Z,101599.56
2022-09-22T11:51:05.786Z,101593.38
2022-09-22T11:53:47.271Z,101591.16
2022-09-22T11:56:29.970Z,101587.97
2022-09-22T11:59:03.405Z,101591.34
2022-09-22T12:01:34.980Z,101587.06
2022-09-22T12:04:39.649Z,101584.66
2022-09-22T12:07:14.664Z,101580.66
2022-09-22T12:09:46.901Z,101571.81
2022-09-22T12:12:18.223Z,101578.59
2022-09-22T12:14:57.194Z,101572.75
2022-09-22T12:17:36.937Z,101570.44
2022-09-22T12:20:18.255Z,101564.53
2022-09-22T12:23:13.623Z,101565.97
2022-09-22T12:25:48.833Z,101560.41
2022-09-22T12:28:23.641Z,101560.31
2022-09-22T12:31:05.177Z,101566.94
2022-09-22T12:33:37.117Z,101555.72
2022-09-22T12:36:04.579Z,101549.47
2022-09-22T12:41:25.422Z,101541.25
2022-09-22T12:43:52.347Z,101544.03
2022-09-22T12:46:25.418Z,101551.00
2022-09-22T12:48:52.455Z,101538.69
2022-09-22T12:51:25.262Z,101541.78
2022-09-22T12:53:52.320Z,101543.38
2022-09-22T12:56:46.579Z,101537.47
2022-09-22T12:59:38.514Z,101526.03
2022-09-22T13:02:14.988Z,101531.22
2022-09-22T13:04:42.909Z,101535.63
2022-09-22T13:07:38.543Z,101531.34
2022-09-22T13:10:26.674Z,101530.13
2022-09-22T13:13:12.393Z,101533.66
2022-09-22T13:15:51.933Z,101531.09
2022-09-22T13:18:42.457Z,101527.03
2022-09-22T13:21:12.246Z,101526.78
2022-09-22T13:23:44.721Z,101524.09
2022-09-22T13:26:13.502Z,101535.34
2022-09-22T13:28:40.644Z,101534.22
2022-09-22T13:31:17.805Z,101529.91
2022-09-22T13:33:44.595Z,101530.47
2022-09-22T13:36:16.538Z,101527.09
2022-09-22T13:38:55.384Z,101518.50
2022-09-22T13:41:24.317Z,101522.03
2022-09-22T13:44:03.928Z,101511.75
2022-09-22T13:46:44.717Z,101516.06
2022-09-22T13:49:12.849Z,101508.63
2022-09-22T13:51:39.869Z,101508.75
2022-09-22T13:54:07.352Z,101511.97
2022-09-22T13:56:34.337Z,101505.72
2022-09-22T13:59:02.704Z,101500.59
2022-09-22T14:01:30.603Z,101497.38
2022-09-22T14:03:57.467Z,101500.69
2022-09-22T14:06:26.936Z,101505.28
2022-09-22T14:08:53.899Z,101500.69
2022-09-22T14:11:24.227Z,101492.88
2022-09-22T14:13:57.874Z,101498.25
2022-09-22T14:16:44.056Z,101495.28
2022-09-22T14:19:17.849Z,101489.91
2022-09-22T14:21:56.108Z,101489.50
2022-09-22T14:24:23.169Z,101482.66
2022-09-22T14:26:54.154Z,101486.59
2022-09-22T14:29:35.273Z,101483.38
2022-09-22T14:32:14.068Z,101482.44
2022-09-22T14:34:47.978Z,101477.53
2022-09-22T14:37:34.365Z,101479.13
2022-09-22T14:40:04.002Z,101482.00
2022-09-22T14:42:32.074Z,101487.56
2022-09-22T14:45:06.260Z,101484.06
2022-09-22T14:47:39.605Z,101484.88
2022-09-22T14:50:19.299Z,101476.13
2022-09-22T14:52:57.891Z,101477.94
2022-09-22T14:55:30.752Z,101476.75
2022-09-22T14:57:57.806Z,101473.84
2022-09-22T15:00:43.413Z,101472.13
2022-09-22T15:03:23.394Z,101475.88
2022-09-22T15:05:50.616Z,101472.78
2022-09-22T15:08:25.463Z,101473.63
2022-09-22T15:10:57.555Z,101470.41
2022-09-22T15:13:39.922Z,101465.06
2022-09-22T15:16:27.277Z,101465.34
2022-09-22T15:18:54.017Z,101456.63
2022-09-22T15:21:29.166Z,101450.66
2022-09-22T15:23:57.183Z,101453.78
2022-09-22T15:26:25.775Z,101454.19
2022-09-22T15:28:54.551Z,101452.84
2022-09-22T15:31:28.600Z,101450.41
2022-09-22T15:33:56.490Z,101447.28
2022-09-22T15:36:25.789Z,101444.09
2022-09-22T15:38:59.410Z,101445.66
2022-09-22T15:41:26.301Z,101442.69
2022-09-22T15:43:53.242Z,101448.97
2022-09-22T15:46:30.593Z,101441.28
2022-09-22T15:49:03.443Z,101442.53
2022-09-22T15:51:31.717Z,101443.06
2022-09-22T15:53:59.383Z,101437.09
2022-09-22T15:56:28.992Z,101435.69
2022-09-22T15:58:59.230Z,101434.09
2022-09-22T16:01:29.716Z,101430.97
2022-09-22T16:04:00.296Z,101437.25
2022-09-22T16:06:27.379Z,101428.47
2022-09-22T16:08:55.416Z,101426.75
2022-09-22T16:11:32.579Z,101427.59
2022-09-22T16:14:03.712Z,101431.44
2022-09-22T16:16:32.420Z,101425.31
2022-09-22T16:19:00.103Z,101431.28
2022-09-22T16:21:33.344Z,101427.75
2022-09-22T16:24:03.946Z,101433.41
2022-09-22T16:26:31.916Z,101435.50
2022-09-22T16:28:59.183Z,101430.91
2022-09-22T16:31:27.222Z,101424.56
2022-09-22T16:34:02.001Z,101425.88
2022-09-22T16:36:33.137Z,101432.91
2022-09-22T16:39:02.556Z,101430.09
2022-09-22T16:41:33.321Z,101426.63
2022-09-22T16:44:01.032Z,101438.66
2022-09-22T16:46:33.782Z,101433.78
2022-09-22T16:53:16.306Z,101439.06
2022-09-22T16:55:49.415Z,101439.66
2022-09-22T16:58:16.191Z,101439.81
2022-09-22T17:00:43.716Z,101434.75
2022-09-22T17:03:10.462Z,101432.00
2022-09-22T17:05:39.865Z,101430.72
2022-09-22T17:08:08.335Z,101438.19
2022-09-22T17:10:36.010Z,101443.06
2022-09-22T17:13:04.940Z,101442.16
2022-09-22T17:15:36.145Z,101432.50
2022-09-22T17:18:04.277Z,101445.38
2022-09-22T17:20:31.060Z,101431.66
2022-09-22T17:22:57.988Z,101443.91
2022-09-22T17:25:28.043Z,101438.38
2022-09-22T17:27:55.063Z,101448.25
2022-09-22T17:30:22.005Z,101442.44
2022-09-22T17:32:49.144Z,101441.88
2022-09-22T17:35:15.996Z,101437.88
2022-09-22T17:37:42.877Z,101434.25
2022-09-22T17:40:11.942Z,101435.09
2022-09-22T17:42:38.871Z,101429.63
2022-09-22T17:45:08.025Z,101436.00
2022-09-22T17:47:53.405Z,101436.66
2022-09-22T17:50:38.526Z,101436.66
2022-09-22T17:53:50.063Z,101426.81
2022-09-22T17:56:16.835Z,101424.69
2022-09-22T17:58:43.840Z,101426.22
2022-09-22T18:01:10.756Z,101429.09
2022-09-22T18:03:37.451Z,101425.09
2022-09-22T18:06:19.242Z,101430.81
2022-09-22T18:08:45.930Z,101430.66
2022-09-22T18:11:13.765Z,101428.66
2022-09-22T18:13:40.514Z,101432.34
2022-09-22T18:16:29.385Z,101429.47
2022-09-22T18:18:56.566Z,101435.31
2022-09-22T18:21:23.237Z,101433.16
2022-09-22T18:23:49.932Z,101436.41
2022-09-22T18:26:18.140Z,101446.03
2022-09-22T18:28:44.841Z,101442.34
2022-09-22T18:31:15.729Z,101437.16
2022-09-22T18:33:43.632Z,101443.06
2022-09-22T18:36:10.957Z,101440.56
2022-09-22T18:38:39.176Z,101437.72
2022-09-22T18:41:05.888Z,101434.91
2022-09-22T18:49:50.177Z,101440.81
2022-09-22T18:52:18.309Z,101441.22
2022-09-22T18:54:44.993Z,101433.16
2022-09-22T18:57:14.541Z,101441.22
2022-09-22T18:59:41.227Z,101438.03
2022-09-22T19:02:11.896Z,101435.00
2022-09-22T19:04:39.037Z,101438.50
2022-09-22T19:07:24.996Z,101434.59
2022-09-22T19:09:53.043Z,101436.56
2022-09-22T19:12:21.755Z,101436.41
2022-09-22T19:14:56.721Z,101434.59
2022-09-22T19:17:24.738Z,101436.78
2022-09-22T19:19:51.844Z,101446.13
2022-09-22T19:22:18.951Z,101438.69
2022-09-22T19:24:46.400Z,101443.00
2022-09-22T19:27:16.086Z,101435.41
2022-09-22T19:29:42.835Z,101445.19
2022-09-22T19:32:09.766Z,101444.38
2022-09-22T19:34:36.668Z,101441.66
2022-09-22T19:37:04.106Z,101440.00
2022-09-22T19:39:32.341Z,101442.00
2022-09-22T19:41:59.632Z,101434.84
2022-09-22T19:44:27.290Z,101439.16
2022-09-22T19:46:54.090Z,101440.03
2022-09-22T19:49:22.026Z,101437.16
2022-09-22T19:51:48.801Z,101429.97
2022-09-22T19:54:15.581Z,101438.88
2022-09-22T19:56:42.317Z,101436.56
2022-09-22T19:59:09.052Z,101428.84
2022-09-22T20:01:37.960Z,101429.25
2022-09-22T20:04:05.381Z,101431.91
2022-09-22T20:06:33.294Z,101432.19
2022-09-22T20:09:02.922Z,101431.09
2022-09-22T20:11:35.654Z,101430.84
2022-09-22T20:14:20.640Z,101429.38
2022-09-22T20:16:49.483Z,101429.81
2022-09-22T20:19:16.259Z,101428.31
2022-09-22T20:21:43.794Z,101436.72
2022-09-22T20:24:13.550Z,101430.81
2022-09-22T20:26:41.859Z,101425.78
2022-09-22T20:29:09.652Z,101426.09
2022-09-22T20:31:37.034Z,101422.91
2022-09-22T20:34:05.865Z,101418.19
2022-09-22T20:36:36.820Z,101417.63
2022-09-22T20:39:04.587Z,101426.56
2022-09-22T20:41:32.166Z,101420.06
2022-09-22T20:43:58.987Z,101420.03
2022-09-22T20:46:25.887Z,101412.03
2022-09-22T20:48:55.521Z,101412.09
2022-09-22T20:51:23.636Z,101414.03
2022-09-22T20:53:50.477Z,101416.53
2022-09-22T20:56:17.742Z,101422.69
2022-09-22T20:58:45.875Z,101417.88
2022-09-22T21:01:14.769Z,101412.16
2022-09-22T21:03:41.840Z,101416.28
2022-09-22T21:06:10.203Z,101418.88
2022-09-22T21:08:57.178Z,101420.13
2022-09-22T21:11:24.267Z,101423.97
2022-09-22T21:13:56.683Z,101421.06
2022-09-22T21:16:23.609Z,101420.66
2022-09-22T21:18:51.865Z,101424.97
2022-09-22T21:21:20.365Z,101419.47
2022-09-22T21:23:48.931Z,101415.19
2022-09-22T21:26:16.872Z,101414.91
2022-09-22T21:28:43.669Z,101418.75
2022-09-22T21:31:10.977Z,101422.31
2022-09-22T21:33:37.932Z,101422.66
2022-09-22T21:36:15.171Z,101424.91
2022-09-22T21:38:43.054Z,101423.16
2022-09-22T21:41:12.134Z,101417.75
2022-09-22T21:43:39.189Z,101417.09
2022-09-22T21:46:11.404Z,101419.66
2022-09-22T21:48:38.212Z,101417.88
2022-09-22T21:51:06.700Z,101417.41
2022-09-22T21:53:34.965Z,101422.25
2022-09-22T21:56:03.455Z,101417.78
2022-09-22T21:58:32.903Z,101419.66
2022-09-22T22:01:01.225Z,101418.69
2022-09-22T22:03:30.934Z,101407.66
2022-09-22T22:06:08.119Z,101414.69
2022-09-22T22:08:41.383Z,101415.91
2022-09-22T22:11:11.087Z,101409.34
2022-09-22T22:13:39.033Z,101410.16
2022-09-22T22:16:11.691Z,101410.00
2022-09-22T22:18:39.035Z,101413.94
2022-09-22T22:21:08.823Z,101415.00
2022-09-22T22:23:41.503Z,101405.66
2022-09-22T22:26:13.057Z,101408.56
2022-09-22T22:28:44.214Z,101409.09
2022-09-22T22:31:13.728Z,101390.69
2022-09-22T22:33:42.265Z,101404.94
2022-09-22T22:36:12.466Z,101399.50
2022-09-22T22:38:40.134Z,101393.84
2022-09-22T22:41:11.783Z,101395.03
2022-09-22T22:43:39.321Z,101405.75
2022-09-22T22:46:07.217Z,101401.50
2022-09-22T22:48:35.805Z,101411.13
2022-09-22T22:51:11.639Z,101407.09
2022-09-22T22:53:38.574Z,101403.69
2022-09-22T22:56:07.920Z,101407.31
2022-09-22T22:58:36.282Z,101400.22
2022-09-22T23:01:10.787Z,101399.78
2022-09-22T23:03:41.298Z,101408.25
2022-09-22T23:06:09.956Z,101397.66
2022-09-22T23:08:37.065Z,101408.75
2022-09-22T23:11:11.593Z,101404.31
2022-09-22T23:13:40.621Z,101404.50
2022-09-22T23:16:09.884Z,101405.66
2022-09-22T23:18:39.104Z,101400.38
2022-09-22T23:21:07.028Z,101398.84
2022-09-22T23:23:34.332Z,101406.03
2022-09-22T23:26:02.276Z,101408.78
2022-09-22T23:28:30.767Z,101406.50
2022-09-22T23:31:09.122Z,101394.94
2022-09-22T23:33:37.951Z,101387.88
2022-09-22T23:36:05.901Z,101387.78
2022-09-22T23:38:34.528Z,101388.41
2022-09-22T23:41:02.250Z,101386.66
2022-09-22T23:43:30.043Z,101377.81
2022-09-22T23:45:57.402Z,101376.13
2022-09-22T23:48:25.726Z,101370.72
2022-09-22T23:50:54.536Z,101365.78
2022-09-22T23:53:23.608Z,101365.91
2022-09-22T23:55:50.830Z,101367.59
2022-09-22T23:58:17.910Z,101362.53
